weather.gov     
National Weather Service

Terminal Aerodrome Forecast
NWS Homepage
This page is being discontinued on March 12, 2014.
The same data is available at this site. Please update your bookmarks.
Thank you, and we apologize for the inconvenience.
Please send an email to SR-SRH.Webmaster@noaa.gov with any concerns.


Current Version
Previous Version:    01  02  03  04  05  06  07  08  09  10  11  12  13  14  15  16  17  18  19  20  21  22  23  24  25  26  27  28  29  
[Printable]
097
FTUS45 KSLC 290522
TAFOGD
TAF
KOGD 290522Z 2906/3006 17010KT P6SM VCSH SCT070 BKN100
      TEMPO 2906/2909 -SHRA SCT060 BKN080
     FM291400 19006KT P6SM VCSH SCT060 BKN080
     FM291900 30010KT P6SM VCTS BKN080CB OVC100
     FM300300 15005KT P6SM VCSH SCT080 BKN100=


097
FTUS45 KSLC 290522
TAFOGD
TAF
KOGD 290522Z 2906/3006 17010KT P6SM VCSH SCT070 BKN100
      TEMPO 2906/2909 -SHRA SCT060 BKN080
     FM291400 19006KT P6SM VCSH SCT060 BKN080
     FM291900 30010KT P6SM VCTS BKN080CB OVC100
     FM300300 15005KT P6SM VCSH SCT080 BKN100=




U.S. Dept. of Commerce
NOAA National Weather Service
1325 East West Highway
Silver Spring, MD 20910
E-mail: w-nws.webmaster@noaa.gov
Page last modified: May 16, 2007
NATIONAL WEATHER SERVICE: for Safety, for Work, for Fun - FOR LIFE